This is the latest recevied weather packets stored in our database for station/object W4EDL-13. If no packets are shown the sender has not sent any weather packets the latest 10 day(s).
| Time | Temp. | Humidity | Pressure | Rain* | Wind** | Luminosity | Snow |
|---|---|---|---|---|---|---|---|
| 1777899446 | 25° C | 54% | 1007.6 hPa | - | - | - | - |
| 1777899426 | 25° C | 54% | 1007.6 hPa | - | - | - | - |
| 1777898846 | 25° C | 58% | 1007.6 hPa | - | - | - | - |
| 1777898825 | 25° C | 58% | 1007.6 hPa | - | - | - | - |
| 1777898245 | 24.44° C | 57% | 1007.6 hPa | - | - | - | - |
| 1777898225 | 24.44° C | 57% | 1007.6 hPa | - | - | - | - |
| 1777897644 | 24.44° C | 61% | 1007.6 hPa | - | - | - | - |
| 1777897624 | 23.89° C | 61% | 1007.6 hPa | - | - | - | - |
| 1777897044 | 22.78° C | 66% | 1007.6 hPa | - | - | - | - |
| 1777897023 | 22.78° C | 66% | 1007.6 hPa | - | - | - | - |
| 1777896443 | 23.33° C | 65% | 1007.3 hPa | - | - | - | - |
| 1777896422 | 23.33° C | 65% | 1007.3 hPa | - | - | - | - |
| 1777895843 | 23.33° C | 65% | 1007.3 hPa | - | - | - | - |
| 1777895822 | 23.33° C | 65% | 1007.3 hPa | - | - | - | - |
| 1777895242 | 22.78° C | 68% | 1007.3 hPa | - | - | - | - |
| 1777895221 | 22.78° C | 68% | 1007.3 hPa | - | - | - | - |
| 1777894642 | 21.67° C | 70% | 1007.3 hPa | - | - | - | - |
| 1777894621 | 21.67° C | 71% | 1007.3 hPa | - | - | - | - |
| 1777894041 | 21.67° C | 71% | 1007.3 hPa | - | - | - | - |
| 1777894020 | 21.67° C | 71% | 1007.3 hPa | - | - | - | - |
| 1777893441 | 21.11° C | 72% | 1006.6 hPa | - | - | - | - |
| 1777893419 | 21.11° C | 72% | 1006.6 hPa | - | - | - | - |
| 1777892840 | 20.56° C | 74% | 1006.6 hPa | - | - | - | - |
| 1777892819 | 20.56° C | 74% | 1006.6 hPa | - | - | - | - |
| 1777892218 | 20.56° C | 74% | 1006.3 hPa | - | - | - | - |
* Rain since midnight (hover to see other rain measurements)
** Current wind speed in m/s (hover to see current wind gust speed)